sensor_id;sensor_type;location;lat;lon;timestamp;P1;durP1;ratioP1;P2;durP2;ratioP2
17993;SDS011;9122;48.406;9.984;2022-12-10T00:02:18;42.10;;;27.07;;
17993;SDS011;9122;48.406;9.984;2022-12-10T00:05:02;38.60;;;26.83;;
17993;SDS011;9122;48.406;9.984;2022-12-10T00:07:48;37.33;;;25.90;;
17993;SDS011;9122;48.406;9.984;2022-12-10T00:10:32;37.07;;;26.40;;
17993;SDS011;9122;48.406;9.984;2022-12-10T00:13:17;38.53;;;26.53;;
17993;SDS011;9122;48.406;9.984;2022-12-10T00:16:02;41.20;;;27.80;;
17993;SDS011;9122;48.406;9.984;2022-12-10T00:18:49;40.83;;;26.47;;
17993;SDS011;9122;48.406;9.984;2022-12-10T00:21:34;38.80;;;26.53;;
17993;SDS011;9122;48.406;9.984;2022-12-10T00:24:19;35.70;;;24.97;;
17993;SDS011;9122;48.406;9.984;2022-12-10T00:27:04;37.60;;;24.37;;
17993;SDS011;9122;48.406;9.984;2022-12-10T00:29:49;36.47;;;25.67;;
17993;SDS011;9122;48.406;9.984;2022-12-10T00:32:33;34.10;;;24.90;;
17993;SDS011;9122;48.406;9.984;2022-12-10T00:35:20;34.27;;;24.80;;
17993;SDS011;9122;48.406;9.984;2022-12-10T00:38:04;36.67;;;25.63;;
17993;SDS011;9122;48.406;9.984;2022-12-10T00:40:49;34.53;;;24.83;;
17993;SDS011;9122;48.406;9.984;2022-12-10T00:43:34;40.23;;;26.30;;
17993;SDS011;9122;48.406;9.984;2022-12-10T00:46:18;34.37;;;24.30;;
17993;SDS011;9122;48.406;9.984;2022-12-10T00:49:03;36.03;;;25.40;;
17993;SDS011;9122;48.406;9.984;2022-12-10T00:51:48;34.87;;;24.47;;
17993;SDS011;9122;48.406;9.984;2022-12-10T00:54:33;34.20;;;24.33;;
17993;SDS011;9122;48.406;9.984;2022-12-10T00:57:17;34.10;;;25.10;;
17993;SDS011;9122;48.406;9.984;2022-12-10T01:00:02;35.30;;;25.83;;
17993;SDS011;9122;48.406;9.984;2022-12-10T01:02:48;36.47;;;24.67;;
17993;SDS011;9122;48.406;9.984;2022-12-10T01:05:33;37.53;;;26.33;;
17993;SDS011;9122;48.406;9.984;2022-12-10T01:08:17;35.10;;;23.87;;
17993;SDS011;9122;48.406;9.984;2022-12-10T01:11:02;36.93;;;26.83;;
17993;SDS011;9122;48.406;9.984;2022-12-10T01:13:47;39.57;;;24.27;;
17993;SDS011;9122;48.406;9.984;2022-12-10T01:16:32;30.53;;;22.80;;
17993;SDS011;9122;48.406;9.984;2022-12-10T01:19:16;34.17;;;24.60;;
17993;SDS011;9122;48.406;9.984;2022-12-10T01:22:01;31.90;;;24.13;;
17993;SDS011;9122;48.406;9.984;2022-12-10T01:24:46;31.50;;;23.27;;
17993;SDS011;9122;48.406;9.984;2022-12-10T01:27:31;31.90;;;25.30;;
17993;SDS011;9122;48.406;9.984;2022-12-10T01:30:15;30.77;;;23.03;;
17993;SDS011;9122;48.406;9.984;2022-12-10T01:33:00;31.10;;;23.03;;
17993;SDS011;9122;48.406;9.984;2022-12-10T01:35:45;31.53;;;23.87;;
17993;SDS011;9122;48.406;9.984;2022-12-10T01:38:29;29.60;;;23.20;;
17993;SDS011;9122;48.406;9.984;2022-12-10T01:41:18;34.27;;;24.80;;
17993;SDS011;9122;48.406;9.984;2022-12-10T01:46:52;35.37;;;25.67;;
17993;SDS011;9122;48.406;9.984;2022-12-10T01:49:39;30.13;;;22.70;;
17993;SDS011;9122;48.406;9.984;2022-12-10T01:52:24;31.73;;;24.43;;
17993;SDS011;9122;48.406;9.984;2022-12-10T01:55:37;32.10;;;22.20;;
17993;SDS011;9122;48.406;9.984;2022-12-10T01:58:42;29.97;;;22.80;;
17993;SDS011;9122;48.406;9.984;2022-12-10T02:01:31;33.80;;;24.47;;
17993;SDS011;9122;48.406;9.984;2022-12-10T02:04:34;30.20;;;23.43;;
17993;SDS011;9122;48.406;9.984;2022-12-10T02:07:53;34.20;;;24.87;;
17993;SDS011;9122;48.406;9.984;2022-12-10T02:13:40;34.10;;;24.93;;
17993;SDS011;9122;48.406;9.984;2022-12-10T02:23:01;33.90;;;24.50;;
17993;SDS011;9122;48.406;9.984;2022-12-10T02:25:54;33.53;;;24.50;;
17993;SDS011;9122;48.406;9.984;2022-12-10T02:29:06;32.60;;;24.67;;
17993;SDS011;9122;48.406;9.984;2022-12-10T02:32:05;34.17;;;23.83;;
17993;SDS011;9122;48.406;9.984;2022-12-10T02:35:05;36.70;;;26.67;;
17993;SDS011;9122;48.406;9.984;2022-12-10T02:38:01;33.67;;;25.20;;
17993;SDS011;9122;48.406;9.984;2022-12-10T02:40:54;31.40;;;24.53;;
17993;SDS011;9122;48.406;9.984;2022-12-10T02:43:43;37.33;;;24.10;;
17993;SDS011;9122;48.406;9.984;2022-12-10T02:46:31;32.80;;;25.03;;
17993;SDS011;9122;48.406;9.984;2022-12-10T02:49:18;32.67;;;24.30;;
17993;SDS011;9122;48.406;9.984;2022-12-10T02:52:09;33.07;;;25.30;;
17993;SDS011;9122;48.406;9.984;2022-12-10T02:54:56;34.90;;;25.07;;
17993;SDS011;9122;48.406;9.984;2022-12-10T03:00:46;33.33;;;23.93;;
17993;SDS011;9122;48.406;9.984;2022-12-10T03:09:20;33.40;;;24.50;;
17993;SDS011;9122;48.406;9.984;2022-12-10T03:12:12;32.20;;;23.50;;
17993;SDS011;9122;48.406;9.984;2022-12-10T03:15:06;28.50;;;22.83;;
17993;SDS011;9122;48.406;9.984;2022-12-10T03:17:53;31.70;;;24.53;;
17993;SDS011;9122;48.406;9.984;2022-12-10T03:20:39;33.47;;;24.30;;
17993;SDS011;9122;48.406;9.984;2022-12-10T03:23:28;29.37;;;23.50;;
17993;SDS011;9122;48.406;9.984;2022-12-10T03:26:15;29.93;;;23.57;;
17993;SDS011;9122;48.406;9.984;2022-12-10T03:29:04;31.73;;;23.90;;
17993;SDS011;9122;48.406;9.984;2022-12-10T03:31:51;32.80;;;23.47;;
17993;SDS011;9122;48.406;9.984;2022-12-10T03:34:37;33.70;;;24.33;;
17993;SDS011;9122;48.406;9.984;2022-12-10T03:37:22;26.27;;;21.23;;
17993;SDS011;9122;48.406;9.984;2022-12-10T03:40:09;29.67;;;23.00;;
17993;SDS011;9122;48.406;9.984;2022-12-10T03:42:56;29.53;;;23.80;;
17993;SDS011;9122;48.406;9.984;2022-12-10T03:45:40;32.20;;;23.50;;
17993;SDS011;9122;48.406;9.984;2022-12-10T03:48:25;27.27;;;21.93;;
17993;SDS011;9122;48.406;9.984;2022-12-10T03:51:10;28.73;;;22.47;;
17993;SDS011;9122;48.406;9.984;2022-12-10T03:53:54;30.80;;;23.53;;
17993;SDS011;9122;48.406;9.984;2022-12-10T03:56:39;32.83;;;23.50;;
17993;SDS011;9122;48.406;9.984;2022-12-10T03:59:23;27.60;;;22.57;;
17993;SDS011;9122;48.406;9.984;2022-12-10T04:02:07;29.13;;;23.20;;
17993;SDS011;9122;48.406;9.984;2022-12-10T04:04:51;28.30;;;22.20;;
17993;SDS011;9122;48.406;9.984;2022-12-10T04:07:36;29.20;;;23.83;;
17993;SDS011;9122;48.406;9.984;2022-12-10T04:10:20;27.43;;;22.03;;
17993;SDS011;9122;48.406;9.984;2022-12-10T04:13:05;28.20;;;21.97;;
17993;SDS011;9122;48.406;9.984;2022-12-10T04:16:08;33.77;;;23.70;;
17993;SDS011;9122;48.406;9.984;2022-12-10T04:19:12;26.93;;;22.17;;
17993;SDS011;9122;48.406;9.984;2022-12-10T04:21:58;30.83;;;22.67;;
17993;SDS011;9122;48.406;9.984;2022-12-10T04:25:01;30.83;;;23.77;;
17993;SDS011;9122;48.406;9.984;2022-12-10T04:28:11;32.60;;;23.17;;
17993;SDS011;9122;48.406;9.984;2022-12-10T04:30:56;32.13;;;22.40;;
17993;SDS011;9122;48.406;9.984;2022-12-10T04:33:40;29.13;;;22.40;;
17993;SDS011;9122;48.406;9.984;2022-12-10T04:36:24;28.50;;;22.90;;
17993;SDS011;9122;48.406;9.984;2022-12-10T04:39:08;29.20;;;23.00;;
17993;SDS011;9122;48.406;9.984;2022-12-10T04:41:55;27.47;;;23.67;;
17993;SDS011;9122;48.406;9.984;2022-12-10T04:44:43;27.90;;;22.37;;
17993;SDS011;9122;48.406;9.984;2022-12-10T04:47:27;29.77;;;22.70;;
17993;SDS011;9122;48.406;9.984;2022-12-10T04:50:12;29.63;;;23.63;;
17993;SDS011;9122;48.406;9.984;2022-12-10T04:52:56;28.67;;;22.20;;
17993;SDS011;9122;48.406;9.984;2022-12-10T04:55:41;30.27;;;21.63;;
17993;SDS011;9122;48.406;9.984;2022-12-10T04:58:26;26.63;;;21.60;;
17993;SDS011;9122;48.406;9.984;2022-12-10T05:01:14;29.60;;;22.93;;
17993;SDS011;9122;48.406;9.984;2022-12-10T05:04:00;28.57;;;22.47;;
17993;SDS011;9122;48.406;9.984;2022-12-10T05:06:47;30.80;;;23.07;;
17993;SDS011;9122;48.406;9.984;2022-12-10T05:09:32;28.67;;;22.87;;
17993;SDS011;9122;48.406;9.984;2022-12-10T05:12:17;29.03;;;23.77;;
17993;SDS011;9122;48.406;9.984;2022-12-10T05:15:01;28.13;;;21.50;;
17993;SDS011;9122;48.406;9.984;2022-12-10T05:17:46;29.07;;;22.23;;
17993;SDS011;9122;48.406;9.984;2022-12-10T05:20:31;29.07;;;22.70;;
17993;SDS011;9122;48.406;9.984;2022-12-10T05:23:15;28.20;;;22.50;;
17993;SDS011;9122;48.406;9.984;2022-12-10T05:26:13;29.87;;;22.60;;
17993;SDS011;9122;48.406;9.984;2022-12-10T05:28:57;27.87;;;22.80;;
17993;SDS011;9122;48.406;9.984;2022-12-10T05:31:41;30.67;;;23.37;;
17993;SDS011;9122;48.406;9.984;2022-12-10T05:34:26;31.30;;;22.67;;
17993;SDS011;9122;48.406;9.984;2022-12-10T05:37:10;27.87;;;21.97;;
17993;SDS011;9122;48.406;9.984;2022-12-10T05:39:56;30.03;;;22.77;;
17993;SDS011;9122;48.406;9.984;2022-12-10T05:42:41;27.73;;;22.67;;
17993;SDS011;9122;48.406;9.984;2022-12-10T05:45:25;31.30;;;21.87;;
17993;SDS011;9122;48.406;9.984;2022-12-10T05:48:10;30.10;;;22.07;;
17993;SDS011;9122;48.406;9.984;2022-12-10T05:50:56;29.40;;;21.83;;
17993;SDS011;9122;48.406;9.984;2022-12-10T05:53:41;30.50;;;22.77;;
17993;SDS011;9122;48.406;9.984;2022-12-10T05:56:25;34.50;;;22.10;;
17993;SDS011;9122;48.406;9.984;2022-12-10T05:59:10;26.17;;;21.60;;
17993;SDS011;9122;48.406;9.984;2022-12-10T06:01:54;29.43;;;23.23;;
17993;SDS011;9122;48.406;9.984;2022-12-10T06:04:39;29.80;;;22.57;;
17993;SDS011;9122;48.406;9.984;2022-12-10T06:07:23;27.70;;;21.60;;
17993;SDS011;9122;48.406;9.984;2022-12-10T06:10:08;26.13;;;21.80;;
17993;SDS011;9122;48.406;9.984;2022-12-10T06:12:53;32.23;;;22.03;;
17993;SDS011;9122;48.406;9.984;2022-12-10T06:15:38;27.57;;;21.67;;
17993;SDS011;9122;48.406;9.984;2022-12-10T06:18:24;29.27;;;23.33;;
17993;SDS011;9122;48.406;9.984;2022-12-10T06:21:09;28.43;;;22.13;;
17993;SDS011;9122;48.406;9.984;2022-12-10T06:23:55;29.80;;;22.20;;
17993;SDS011;9122;48.406;9.984;2022-12-10T06:26:39;27.50;;;21.77;;
17993;SDS011;9122;48.406;9.984;2022-12-10T06:29:24;28.43;;;22.30;;
17993;SDS011;9122;48.406;9.984;2022-12-10T06:32:08;30.97;;;23.60;;
17993;SDS011;9122;48.406;9.984;2022-12-10T06:34:52;29.50;;;22.70;;
17993;SDS011;9122;48.406;9.984;2022-12-10T06:37:37;30.40;;;22.90;;
17993;SDS011;9122;48.406;9.984;2022-12-10T06:40:21;29.90;;;22.33;;
17993;SDS011;9122;48.406;9.984;2022-12-10T06:43:06;27.23;;;22.37;;
17993;SDS011;9122;48.406;9.984;2022-12-10T06:45:51;28.17;;;22.77;;
17993;SDS011;9122;48.406;9.984;2022-12-10T06:48:36;29.50;;;21.47;;
17993;SDS011;9122;48.406;9.984;2022-12-10T06:51:21;27.73;;;21.60;;
17993;SDS011;9122;48.406;9.984;2022-12-10T06:54:05;26.73;;;22.10;;
17993;SDS011;9122;48.406;9.984;2022-12-10T06:56:49;30.27;;;22.37;;
17993;SDS011;9122;48.406;9.984;2022-12-10T06:59:34;27.27;;;20.80;;
17993;SDS011;9122;48.406;9.984;2022-12-10T07:02:18;27.97;;;21.30;;
17993;SDS011;9122;48.406;9.984;2022-12-10T07:05:03;26.47;;;21.53;;
17993;SDS011;9122;48.406;9.984;2022-12-10T07:07:48;27.27;;;22.40;;
17993;SDS011;9122;48.406;9.984;2022-12-10T07:10:32;30.50;;;22.00;;
17993;SDS011;9122;48.406;9.984;2022-12-10T07:13:17;27.93;;;21.43;;
17993;SDS011;9122;48.406;9.984;2022-12-10T07:16:02;28.27;;;22.47;;
17993;SDS011;9122;48.406;9.984;2022-12-10T07:18:47;26.83;;;20.73;;
17993;SDS011;9122;48.406;9.984;2022-12-10T07:21:33;29.97;;;22.43;;
17993;SDS011;9122;48.406;9.984;2022-12-10T07:24:19;26.60;;;21.03;;
17993;SDS011;9122;48.406;9.984;2022-12-10T07:27:07;28.70;;;21.47;;
17993;SDS011;9122;48.406;9.984;2022-12-10T07:29:51;30.17;;;22.53;;
17993;SDS011;9122;48.406;9.984;2022-12-10T07:32:36;29.43;;;21.47;;
17993;SDS011;9122;48.406;9.984;2022-12-10T07:35:21;31.40;;;24.03;;
17993;SDS011;9122;48.406;9.984;2022-12-10T07:38:05;31.17;;;24.27;;
17993;SDS011;9122;48.406;9.984;2022-12-10T07:40:50;28.20;;;22.50;;
17993;SDS011;9122;48.406;9.984;2022-12-10T07:43:35;30.37;;;24.20;;
17993;SDS011;9122;48.406;9.984;2022-12-10T07:46:23;27.47;;;21.47;;
17993;SDS011;9122;48.406;9.984;2022-12-10T07:49:09;28.70;;;22.60;;
17993;SDS011;9122;48.406;9.984;2022-12-10T07:51:54;26.27;;;21.63;;
17993;SDS011;9122;48.406;9.984;2022-12-10T07:54:38;34.10;;;28.33;;
17993;SDS011;9122;48.406;9.984;2022-12-10T07:57:23;29.30;;;23.53;;
17993;SDS011;9122;48.406;9.984;2022-12-10T08:00:07;29.87;;;23.50;;
17993;SDS011;9122;48.406;9.984;2022-12-10T08:02:52;27.63;;;22.80;;
17993;SDS011;9122;48.406;9.984;2022-12-10T08:05:37;30.77;;;24.00;;
17993;SDS011;9122;48.406;9.984;2022-12-10T08:08:21;31.20;;;25.20;;
17993;SDS011;9122;48.406;9.984;2022-12-10T08:11:06;27.93;;;20.90;;
17993;SDS011;9122;48.406;9.984;2022-12-10T08:13:51;32.43;;;23.57;;
17993;SDS011;9122;48.406;9.984;2022-12-10T08:16:36;28.20;;;20.97;;
17993;SDS011;9122;48.406;9.984;2022-12-10T08:19:20;29.07;;;22.17;;
17993;SDS011;9122;48.406;9.984;2022-12-10T08:22:04;28.97;;;23.23;;
17993;SDS011;9122;48.406;9.984;2022-12-10T08:24:49;30.07;;;22.33;;
17993;SDS011;9122;48.406;9.984;2022-12-10T08:27:33;28.70;;;22.90;;
17993;SDS011;9122;48.406;9.984;2022-12-10T08:30:18;27.87;;;21.93;;
17993;SDS011;9122;48.406;9.984;2022-12-10T08:33:03;26.63;;;20.97;;
17993;SDS011;9122;48.406;9.984;2022-12-10T08:35:47;28.43;;;21.17;;
17993;SDS011;9122;48.406;9.984;2022-12-10T08:38:32;26.43;;;20.90;;
17993;SDS011;9122;48.406;9.984;2022-12-10T08:41:20;26.93;;;20.33;;
17993;SDS011;9122;48.406;9.984;2022-12-10T08:44:05;23.93;;;18.57;;
17993;SDS011;9122;48.406;9.984;2022-12-10T08:46:50;26.00;;;18.90;;
17993;SDS011;9122;48.406;9.984;2022-12-10T08:49:35;25.63;;;19.33;;
17993;SDS011;9122;48.406;9.984;2022-12-10T08:52:19;26.33;;;20.30;;
17993;SDS011;9122;48.406;9.984;2022-12-10T08:55:04;28.53;;;21.00;;
17993;SDS011;9122;48.406;9.984;2022-12-10T08:57:48;25.33;;;20.27;;
17993;SDS011;9122;48.406;9.984;2022-12-10T09:00:33;24.63;;;19.07;;
17993;SDS011;9122;48.406;9.984;2022-12-10T09:03:17;23.67;;;18.57;;
17993;SDS011;9122;48.406;9.984;2022-12-10T09:06:03;23.27;;;19.03;;
17993;SDS011;9122;48.406;9.984;2022-12-10T09:08:49;27.53;;;18.97;;
17993;SDS011;9122;48.406;9.984;2022-12-10T09:11:34;22.53;;;18.13;;
17993;SDS011;9122;48.406;9.984;2022-12-10T09:14:19;22.50;;;18.20;;
17993;SDS011;9122;48.406;9.984;2022-12-10T09:17:04;22.57;;;17.87;;
17993;SDS011;9122;48.406;9.984;2022-12-10T09:19:48;19.97;;;16.70;;
17993;SDS011;9122;48.406;9.984;2022-12-10T09:22:33;22.67;;;17.40;;
17993;SDS011;9122;48.406;9.984;2022-12-10T09:25:20;22.83;;;17.37;;
17993;SDS011;9122;48.406;9.984;2022-12-10T09:28:05;21.57;;;17.20;;
17993;SDS011;9122;48.406;9.984;2022-12-10T09:30:59;20.70;;;16.97;;
17993;SDS011;9122;48.406;9.984;2022-12-10T09:33:45;21.93;;;16.73;;
17993;SDS011;9122;48.406;9.984;2022-12-10T09:36:30;23.80;;;17.07;;
17993;SDS011;9122;48.406;9.984;2022-12-10T09:39:15;19.27;;;17.17;;
17993;SDS011;9122;48.406;9.984;2022-12-10T09:42:07;20.57;;;16.90;;
17993;SDS011;9122;48.406;9.984;2022-12-10T09:45:09;20.67;;;15.93;;
17993;SDS011;9122;48.406;9.984;2022-12-10T09:51:27;19.20;;;15.33;;
17993;SDS011;9122;48.406;9.984;2022-12-10T09:54:25;17.67;;;15.40;;
17993;SDS011;9122;48.406;9.984;2022-12-10T09:57:16;19.30;;;16.17;;
17993;SDS011;9122;48.406;9.984;2022-12-10T10:03:06;19.70;;;15.23;;
17993;SDS011;9122;48.406;9.984;2022-12-10T10:05:56;19.40;;;15.67;;
17993;SDS011;9122;48.406;9.984;2022-12-10T10:08:45;16.43;;;14.13;;
17993;SDS011;9122;48.406;9.984;2022-12-10T10:11:32;18.73;;;15.83;;
17993;SDS011;9122;48.406;9.984;2022-12-10T10:14:22;19.37;;;14.23;;
17993;SDS011;9122;48.406;9.984;2022-12-10T10:17:21;26.97;;;19.60;;
17993;SDS011;9122;48.406;9.984;2022-12-10T10:20:11;19.10;;;16.20;;
17993;SDS011;9122;48.406;9.984;2022-12-10T10:22:57;15.83;;;14.13;;
17993;SDS011;9122;48.406;9.984;2022-12-10T10:25:44;16.83;;;13.70;;
17993;SDS011;9122;48.406;9.984;2022-12-10T10:28:29;17.27;;;14.77;;
17993;SDS011;9122;48.406;9.984;2022-12-10T10:31:23;16.20;;;13.93;;
17993;SDS011;9122;48.406;9.984;2022-12-10T10:37:01;15.67;;;13.70;;
17993;SDS011;9122;48.406;9.984;2022-12-10T10:39:50;15.60;;;13.97;;
17993;SDS011;9122;48.406;9.984;2022-12-10T10:48:21;17.83;;;14.47;;
17993;SDS011;9122;48.406;9.984;2022-12-10T10:51:12;18.00;;;14.23;;
17993;SDS011;9122;48.406;9.984;2022-12-10T10:54:02;18.80;;;14.50;;
17993;SDS011;9122;48.406;9.984;2022-12-10T10:56:46;15.53;;;13.80;;
17993;SDS011;9122;48.406;9.984;2022-12-10T10:59:32;16.57;;;13.57;;
17993;SDS011;9122;48.406;9.984;2022-12-10T11:02:20;14.90;;;13.30;;
17993;SDS011;9122;48.406;9.984;2022-12-10T11:05:05;17.10;;;13.43;;
17993;SDS011;9122;48.406;9.984;2022-12-10T11:08:26;18.83;;;14.23;;
17993;SDS011;9122;48.406;9.984;2022-12-10T11:11:05;15.27;;;12.83;;
17993;SDS011;9122;48.406;9.984;2022-12-10T11:14:02;15.30;;;12.10;;
17993;SDS011;9122;48.406;9.984;2022-12-10T11:17:21;16.47;;;11.80;;
17993;SDS011;9122;48.406;9.984;2022-12-10T11:23:02;15.63;;;12.87;;
17993;SDS011;9122;48.406;9.984;2022-12-10T11:26:31;15.77;;;13.60;;
17993;SDS011;9122;48.406;9.984;2022-12-10T11:35:11;15.00;;;13.40;;
17993;SDS011;9122;48.406;9.984;2022-12-10T11:38:20;13.53;;;12.13;;
17993;SDS011;9122;48.406;9.984;2022-12-10T11:41:12;17.77;;;12.77;;
17993;SDS011;9122;48.406;9.984;2022-12-10T11:56:43;16.93;;;14.27;;
17993;SDS011;9122;48.406;9.984;2022-12-10T12:09:36;23.60;;;18.10;;
17993;SDS011;9122;48.406;9.984;2022-12-10T12:12:51;20.37;;;15.57;;
17993;SDS011;9122;48.406;9.984;2022-12-10T12:18:58;24.27;;;19.47;;
17993;SDS011;9122;48.406;9.984;2022-12-10T12:21:47;21.27;;;17.93;;
17993;SDS011;9122;48.406;9.984;2022-12-10T12:24:37;22.73;;;18.77;;
17993;SDS011;9122;48.406;9.984;2022-12-10T12:27:32;25.10;;;18.57;;
17993;SDS011;9122;48.406;9.984;2022-12-10T12:30:38;24.63;;;20.10;;
17993;SDS011;9122;48.406;9.984;2022-12-10T12:33:45;24.23;;;19.43;;
17993;SDS011;9122;48.406;9.984;2022-12-10T12:36:32;21.93;;;18.33;;
17993;SDS011;9122;48.406;9.984;2022-12-10T12:45:21;24.50;;;19.43;;
17993;SDS011;9122;48.406;9.984;2022-12-10T12:48:32;26.77;;;20.03;;
17993;SDS011;9122;48.406;9.984;2022-12-10T12:52:18;23.20;;;19.30;;
17993;SDS011;9122;48.406;9.984;2022-12-10T12:55:13;23.27;;;19.40;;
17993;SDS011;9122;48.406;9.984;2022-12-10T13:06:41;21.57;;;18.63;;
17993;SDS011;9122;48.406;9.984;2022-12-10T13:09:29;23.23;;;20.63;;
17993;SDS011;9122;48.406;9.984;2022-12-10T13:32:04;25.07;;;19.90;;
17993;SDS011;9122;48.406;9.984;2022-12-10T13:40:38;21.63;;;17.97;;
17993;SDS011;9122;48.406;9.984;2022-12-10T13:43:51;21.43;;;18.40;;
17993;SDS011;9122;48.406;9.984;2022-12-10T13:56:03;19.80;;;16.97;;
17993;SDS011;9122;48.406;9.984;2022-12-10T14:02:03;21.43;;;17.27;;
17993;SDS011;9122;48.406;9.984;2022-12-10T14:08:20;19.33;;;16.10;;
17993;SDS011;9122;48.406;9.984;2022-12-10T14:11:18;18.83;;;16.47;;
17993;SDS011;9122;48.406;9.984;2022-12-10T14:14:11;19.90;;;17.33;;
17993;SDS011;9122;48.406;9.984;2022-12-10T14:17:04;21.57;;;17.17;;
17993;SDS011;9122;48.406;9.984;2022-12-10T14:19:53;20.13;;;16.70;;
17993;SDS011;9122;48.406;9.984;2022-12-10T14:22:39;19.63;;;16.70;;
17993;SDS011;9122;48.406;9.984;2022-12-10T14:25:29;21.10;;;17.30;;
17993;SDS011;9122;48.406;9.984;2022-12-10T14:28:15;21.40;;;18.83;;
17993;SDS011;9122;48.406;9.984;2022-12-10T14:31:00;24.20;;;19.30;;
17993;SDS011;9122;48.406;9.984;2022-12-10T14:33:47;27.23;;;20.03;;
17993;SDS011;9122;48.406;9.984;2022-12-10T14:36:43;23.70;;;19.77;;
17993;SDS011;9122;48.406;9.984;2022-12-10T14:39:37;28.97;;;21.10;;
17993;SDS011;9122;48.406;9.984;2022-12-10T14:42:22;24.73;;;19.33;;
17993;SDS011;9122;48.406;9.984;2022-12-10T14:45:07;27.17;;;20.37;;
17993;SDS011;9122;48.406;9.984;2022-12-10T14:47:56;26.93;;;20.93;;
17993;SDS011;9122;48.406;9.984;2022-12-10T14:50:44;23.90;;;20.43;;
17993;SDS011;9122;48.406;9.984;2022-12-10T14:53:31;25.67;;;19.50;;
17993;SDS011;9122;48.406;9.984;2022-12-10T14:56:34;23.07;;;20.27;;
17993;SDS011;9122;48.406;9.984;2022-12-10T14:59:22;30.07;;;20.17;;
17993;SDS011;9122;48.406;9.984;2022-12-10T15:02:24;26.93;;;20.17;;
17993;SDS011;9122;48.406;9.984;2022-12-10T15:05:15;23.97;;;20.20;;
17993;SDS011;9122;48.406;9.984;2022-12-10T15:08:06;24.13;;;20.10;;
17993;SDS011;9122;48.406;9.984;2022-12-10T15:10:58;23.40;;;20.23;;
17993;SDS011;9122;48.406;9.984;2022-12-10T15:13:45;27.60;;;20.83;;
17993;SDS011;9122;48.406;9.984;2022-12-10T15:16:39;26.60;;;20.70;;
17993;SDS011;9122;48.406;9.984;2022-12-10T15:25:25;25.97;;;20.50;;
17993;SDS011;9122;48.406;9.984;2022-12-10T15:28:21;24.80;;;20.43;;
17993;SDS011;9122;48.406;9.984;2022-12-10T15:34:05;27.77;;;20.80;;
17993;SDS011;9122;48.406;9.984;2022-12-10T15:36:53;24.50;;;20.47;;
17993;SDS011;9122;48.406;9.984;2022-12-10T15:39:53;24.70;;;20.50;;
17993;SDS011;9122;48.406;9.984;2022-12-10T15:42:40;24.10;;;20.13;;
17993;SDS011;9122;48.406;9.984;2022-12-10T15:45:27;28.40;;;22.17;;
17993;SDS011;9122;48.406;9.984;2022-12-10T15:48:23;27.03;;;21.13;;
17993;SDS011;9122;48.406;9.984;2022-12-10T15:51:10;25.93;;;21.80;;
17993;SDS011;9122;48.406;9.984;2022-12-10T15:53:55;29.43;;;21.70;;
17993;SDS011;9122;48.406;9.984;2022-12-10T15:56:39;25.87;;;21.93;;
17993;SDS011;9122;48.406;9.984;2022-12-10T15:59:24;26.80;;;22.17;;
17993;SDS011;9122;48.406;9.984;2022-12-10T16:05:20;30.67;;;21.37;;
17993;SDS011;9122;48.406;9.984;2022-12-10T16:11:14;25.87;;;20.90;;
17993;SDS011;9122;48.406;9.984;2022-12-10T16:14:01;27.60;;;20.80;;
17993;SDS011;9122;48.406;9.984;2022-12-10T16:16:46;25.37;;;20.23;;
17993;SDS011;9122;48.406;9.984;2022-12-10T16:19:30;26.00;;;20.80;;
17993;SDS011;9122;48.406;9.984;2022-12-10T16:22:15;27.63;;;21.37;;
17993;SDS011;9122;48.406;9.984;2022-12-10T16:24:59;25.47;;;19.23;;
17993;SDS011;9122;48.406;9.984;2022-12-10T16:27:44;27.47;;;20.90;;
17993;SDS011;9122;48.406;9.984;2022-12-10T16:30:37;27.10;;;20.03;;
17993;SDS011;9122;48.406;9.984;2022-12-10T16:33:25;26.90;;;20.37;;
17993;SDS011;9122;48.406;9.984;2022-12-10T16:36:11;26.83;;;21.13;;
17993;SDS011;9122;48.406;9.984;2022-12-10T16:38:55;26.07;;;20.10;;
17993;SDS011;9122;48.406;9.984;2022-12-10T16:41:40;24.83;;;21.03;;
17993;SDS011;9122;48.406;9.984;2022-12-10T16:44:25;26.90;;;22.23;;
17993;SDS011;9122;48.406;9.984;2022-12-10T16:47:12;25.27;;;21.60;;
17993;SDS011;9122;48.406;9.984;2022-12-10T16:49:57;27.83;;;21.00;;
17993;SDS011;9122;48.406;9.984;2022-12-10T16:52:41;28.97;;;21.77;;
17993;SDS011;9122;48.406;9.984;2022-12-10T16:55:27;28.37;;;20.77;;
17993;SDS011;9122;48.406;9.984;2022-12-10T16:58:12;34.37;;;25.93;;
17993;SDS011;9122;48.406;9.984;2022-12-10T17:01:00;27.83;;;22.70;;
17993;SDS011;9122;48.406;9.984;2022-12-10T17:03:45;28.87;;;22.33;;
17993;SDS011;9122;48.406;9.984;2022-12-10T17:06:30;27.73;;;21.60;;
17993;SDS011;9122;48.406;9.984;2022-12-10T17:09:14;28.77;;;22.60;;
17993;SDS011;9122;48.406;9.984;2022-12-10T17:11:59;28.83;;;23.10;;
17993;SDS011;9122;48.406;9.984;2022-12-10T17:14:44;27.77;;;22.97;;
17993;SDS011;9122;48.406;9.984;2022-12-10T17:17:30;28.97;;;23.30;;
17993;SDS011;9122;48.406;9.984;2022-12-10T17:20:16;33.27;;;26.00;;
17993;SDS011;9122;48.406;9.984;2022-12-10T17:23:01;32.27;;;25.03;;
17993;SDS011;9122;48.406;9.984;2022-12-10T17:25:45;25.77;;;22.03;;
17993;SDS011;9122;48.406;9.984;2022-12-10T17:28:30;28.03;;;21.97;;
17993;SDS011;9122;48.406;9.984;2022-12-10T17:31:15;35.67;;;24.27;;
17993;SDS011;9122;48.406;9.984;2022-12-10T17:34:00;34.93;;;25.17;;
17993;SDS011;9122;48.406;9.984;2022-12-10T17:36:44;28.23;;;23.53;;
17993;SDS011;9122;48.406;9.984;2022-12-10T17:39:36;34.23;;;24.53;;
17993;SDS011;9122;48.406;9.984;2022-12-10T17:42:21;28.40;;;21.70;;
17993;SDS011;9122;48.406;9.984;2022-12-10T17:45:06;31.40;;;24.23;;
17993;SDS011;9122;48.406;9.984;2022-12-10T17:47:50;29.20;;;21.73;;
17993;SDS011;9122;48.406;9.984;2022-12-10T17:50:36;30.13;;;22.87;;
17993;SDS011;9122;48.406;9.984;2022-12-10T17:53:21;32.47;;;24.60;;
17993;SDS011;9122;48.406;9.984;2022-12-10T17:56:09;31.50;;;24.03;;
17993;SDS011;9122;48.406;9.984;2022-12-10T17:58:59;30.77;;;23.63;;
17993;SDS011;9122;48.406;9.984;2022-12-10T18:01:44;32.17;;;24.53;;
17993;SDS011;9122;48.406;9.984;2022-12-10T18:04:28;32.10;;;24.70;;
17993;SDS011;9122;48.406;9.984;2022-12-10T18:07:17;32.00;;;24.10;;
17993;SDS011;9122;48.406;9.984;2022-12-10T18:10:03;29.93;;;23.60;;
17993;SDS011;9122;48.406;9.984;2022-12-10T18:12:52;31.53;;;24.13;;
17993;SDS011;9122;48.406;9.984;2022-12-10T18:15:37;28.93;;;22.37;;
17993;SDS011;9122;48.406;9.984;2022-12-10T18:18:21;29.00;;;22.80;;
17993;SDS011;9122;48.406;9.984;2022-12-10T18:21:06;29.93;;;23.37;;
17993;SDS011;9122;48.406;9.984;2022-12-10T18:23:51;28.50;;;21.93;;
17993;SDS011;9122;48.406;9.984;2022-12-10T18:26:39;28.23;;;23.03;;
17993;SDS011;9122;48.406;9.984;2022-12-10T18:29:25;28.20;;;22.17;;
17993;SDS011;9122;48.406;9.984;2022-12-10T18:32:10;33.23;;;25.03;;
17993;SDS011;9122;48.406;9.984;2022-12-10T18:34:55;28.10;;;22.30;;
17993;SDS011;9122;48.406;9.984;2022-12-10T18:37:41;32.27;;;24.07;;
17993;SDS011;9122;48.406;9.984;2022-12-10T18:40:26;28.70;;;22.30;;
17993;SDS011;9122;48.406;9.984;2022-12-10T18:43:12;28.33;;;21.57;;
17993;SDS011;9122;48.406;9.984;2022-12-10T18:45:57;27.93;;;22.10;;
17993;SDS011;9122;48.406;9.984;2022-12-10T19:14:26;28.77;;;22.63;;
17993;SDS011;9122;48.406;9.984;2022-12-10T19:17:21;28.10;;;21.57;;
17993;SDS011;9122;48.406;9.984;2022-12-10T19:20:14;27.43;;;22.10;;
17993;SDS011;9122;48.406;9.984;2022-12-10T19:23:04;26.27;;;20.83;;
17993;SDS011;9122;48.406;9.984;2022-12-10T19:25:48;26.97;;;20.83;;